Evelyn Cutler — WDH6071 — position and weather

sailwx.info

Track history (hours):
 
Tides and Currents Weather Stations Pressure Air Temp Water Temp Dewpoint Dewpoint Depression Visibility Wind Speed Wind Dir Waves Ship Positions

Evelyn Cutler

Owner: poling&cutler marine trans. llc, East Brunswick, NJ. More information available from US FCC via Universal Licensing System and Coast Guard Vessel Documentation Center.

Last reported at 2018-Jun-22 14:19 UTC. Time now 2018-Jun-23 19:21 UTC.
Position N 40°47' W 073°60'.

Length 40 m; draft 5 m.

Type: Towing. MMSI: 367634360.

Date/timePositionNaut miles runAvg speedWind from/ knotsBaromVisibWave heightAir tempDewpointWater temp
2018-Jun-22 14:19N 40°47' W 073°60'2 6.2
2018-Jun-22 14:00N 40°45' W 074°01'3 6.6
2018-Jun-22 13:31N 40°42' W 074°02'3 6.8
2018-Jun-22 13:01N 40°39' W 074°04'4 8.8
2018-Jun-22 12:31N 40°39' W 074°10'3 4.2
2018-Jun-22 11:48N 40°36' W 074°12'0 0.1
2018-Jun-22 11:30N 40°36' W 074°12'0 0.0
2018-Jun-22 10:28N 40°36' W 074°12'1 1.3
2018-Jun-22 09:46N 40°37' W 074°12'2 8.7
2018-Jun-22 09:30N 40°39' W 074°10'3 5.4
2018-Jun-22 09:01N 40°39' W 074°07'0 0.0
2018-Jun-22 08:31N 40°39' W 074°07'0 0.0
2018-Jun-22 08:01N 40°39' W 074°07'0 0.0
2018-Jun-22 07:31N 40°39' W 074°07'0 0.0
2018-Jun-22 07:01N 40°39' W 074°07'0 0.0
2018-Jun-22 06:31N 40°39' W 074°07'0 0.0
2018-Jun-22 06:01N 40°39' W 074°07'0 0.0
2018-Jun-22 05:30N 40°39' W 074°07'4 7.9
2018-Jun-22 05:00N 40°38' W 074°12'1 1.2
2018-Jun-22 04:15N 40°37' W 074°12'2 7.6
2018-Jun-22 03:58N 40°39' W 074°10'4 8.5
2018-Jun-22 03:30N 40°39' W 074°05'5 9.7
2018-Jun-22 03:00N 40°43' W 074°01'7 0.8
2018-Jun-21 18:32N 40°49' W 073°58'0 0.3
2018-Jun-21 18:29N 40°49' W 073°58'0 0.0
2018-Jun-21 10:26N 40°49' W 073°58'0 0.1
2018-Jun-21 09:14N 40°49' W 073°58'0 0.0
2018-Jun-20 10:50N 40°49' W 073°59'3 7.9
2018-Jun-20 10:28N 40°46' W 074°00'4 8.2
2018-Jun-20 10:00N 40°42' W 074°02'4 8.2
2018-Jun-20 09:30N 40°38' W 074°04'1 1.2
2018-Jun-20 09:00N 40°38' W 074°04'1 2.6
2018-Jun-20 08:30N 40°39' W 074°03'4 8.3
2018-Jun-20 08:00N 40°43' W 074°01'4 7.2
2018-Jun-20 07:30N 40°47' W 073°60'  
2018-Jun-15 17:42N 40°47' W 073°60'2 8.1
2018-Jun-15 17:30N 40°46' W 074°01'4 7.8
2018-Jun-15 17:01N 40°42' W 074°01'4 7.7
2018-Jun-15 16:30N 40°45' W 073°58'63 8.3
2018-Jun-15 08:51N 41°13' W 072°43'3 7.6
2018-Jun-15 08:30N 41°14' W 072°40'4 7.2
2018-Jun-15 08:00N 41°14' W 072°35'3 6.9
2018-Jun-15 07:30N 41°13' W 072°30'3 6.7
2018-Jun-15 07:00N 41°13' W 072°26'4 7.1
2018-Jun-15 06:30N 41°14' W 072°21'3 6.8
2018-Jun-15 06:00N 41°14' W 072°17'4 7.5
2018-Jun-15 05:30N 41°15' W 072°12'6 0.6
2018-Jun-14 19:21N 41°18' W 072°05'8 9.2
2018-Jun-14 18:27N 41°15' W 072°15'510.6
2018-Jun-14 18:00N 41°14' W 072°21'5 9.5
2018-Jun-14 17:30N 41°13' W 072°27'5 9.4
2018-Jun-14 17:00N 41°12' W 072°33'5 9.1
2018-Jun-14 16:30N 41°12' W 072°39'4 8.5
2018-Jun-14 16:00N 41°12' W 072°45'60 7.9
2018-Jun-14 08:24N 40°46' W 073°57'3 6.5
2018-Jun-14 08:00N 40°43' W 073°58'3 6.0
2018-Jun-14 07:30N 40°41' W 074°01'1 2.2
2018-Jun-14 07:00N 40°42' W 074°02'611.6
2018-Jun-14 06:29N 40°48' W 073°59'1 0.0
2018-Jun-12 19:34N 40°47' W 073°60'0 0.1
2018-Jun-12 19:17N 40°47' W 073°60'2 5.2
2018-Jun-12 19:00N 40°45' W 074°01'3 6.2
2018-Jun-12 18:30N 40°42' W 074°02'3 6.1
2018-Jun-12 18:00N 40°40' W 074°03'2 3.2
2018-Jun-12 17:29N 40°39' W 074°05'0 0.0
2018-Jun-12 16:56N 40°39' W 074°05'0 0.0
2018-Jun-12 16:29N 40°39' W 074°05'0 0.0
2018-Jun-12 15:59N 40°39' W 074°05'0 0.0
2018-Jun-12 15:29N 40°39' W 074°05'0 0.0
2018-Jun-12 14:59N 40°39' W 074°05'0 0.0
2018-Jun-12 14:29N 40°39' W 074°05'  
Track history (hours):
 
Tides and Currents Weather Stations Pressure Air Temp Water Temp Dewpoint Dewpoint Depression Visibility Wind Speed Wind Dir Waves Ship Positions

Evelyn Cutler

Owner: poling&cutler marine trans. llc, East Brunswick, NJ. More information available from US FCC via Universal Licensing System and Coast Guard Vessel Documentation Center.

Last reported at 2018-Jun-22 14:19 UTC. Time now 2018-Jun-23 19:21 UTC.
Position N 40°47' W 073°60'.

Length 40 m; draft 5 m.

Type: Towing. MMSI: 367634360.

Date/timePositionNaut miles runAvg speedWind from/ knotsBaromVisibWave heightAir tempDewpointWater temp
2018-Jun-22 14:19N 40°47' W 073°60'2 6.2
2018-Jun-22 14:00N 40°45' W 074°01'3 6.6
2018-Jun-22 13:31N 40°42' W 074°02'3 6.8
2018-Jun-22 13:01N 40°39' W 074°04'4 8.8
2018-Jun-22 12:31N 40°39' W 074°10'3 4.2
2018-Jun-22 11:48N 40°36' W 074°12'0 0.1
2018-Jun-22 11:30N 40°36' W 074°12'0 0.0
2018-Jun-22 10:28N 40°36' W 074°12'1 1.3
2018-Jun-22 09:46N 40°37' W 074°12'2 8.7
2018-Jun-22 09:30N 40°39' W 074°10'3 5.4
2018-Jun-22 09:01N 40°39' W 074°07'0 0.0
2018-Jun-22 08:31N 40°39' W 074°07'0 0.0
2018-Jun-22 08:01N 40°39' W 074°07'0 0.0
2018-Jun-22 07:31N 40°39' W 074°07'0 0.0
2018-Jun-22 07:01N 40°39' W 074°07'0 0.0
2018-Jun-22 06:31N 40°39' W 074°07'0 0.0
2018-Jun-22 06:01N 40°39' W 074°07'0 0.0
2018-Jun-22 05:30N 40°39' W 074°07'4 7.9
2018-Jun-22 05:00N 40°38' W 074°12'1 1.2
2018-Jun-22 04:15N 40°37' W 074°12'2 7.6
2018-Jun-22 03:58N 40°39' W 074°10'4 8.5
2018-Jun-22 03:30N 40°39' W 074°05'5 9.7
2018-Jun-22 03:00N 40°43' W 074°01'7 0.8
2018-Jun-21 18:32N 40°49' W 073°58'0 0.3
2018-Jun-21 18:29N 40°49' W 073°58'0 0.0
2018-Jun-21 10:26N 40°49' W 073°58'0 0.1
2018-Jun-21 09:14N 40°49' W 073°58'0 0.0
2018-Jun-20 10:50N 40°49' W 073°59'3 7.9
2018-Jun-20 10:28N 40°46' W 074°00'4 8.2
2018-Jun-20 10:00N 40°42' W 074°02'4 8.2
2018-Jun-20 09:30N 40°38' W 074°04'1 1.2
2018-Jun-20 09:00N 40°38' W 074°04'1 2.6
2018-Jun-20 08:30N 40°39' W 074°03'4 8.3
2018-Jun-20 08:00N 40°43' W 074°01'4 7.2
2018-Jun-20 07:30N 40°47' W 073°60'  
2018-Jun-15 17:42N 40°47' W 073°60'2 8.1
2018-Jun-15 17:30N 40°46' W 074°01'4 7.8
2018-Jun-15 17:01N 40°42' W 074°01'4 7.7
2018-Jun-15 16:30N 40°45' W 073°58'63 8.3
2018-Jun-15 08:51N 41°13' W 072°43'3 7.6
2018-Jun-15 08:30N 41°14' W 072°40'4 7.2
2018-Jun-15 08:00N 41°14' W 072°35'3 6.9
2018-Jun-15 07:30N 41°13' W 072°30'3 6.7
2018-Jun-15 07:00N 41°13' W 072°26'4 7.1
2018-Jun-15 06:30N 41°14' W 072°21'3 6.8
2018-Jun-15 06:00N 41°14' W 072°17'4 7.5
2018-Jun-15 05:30N 41°15' W 072°12'6 0.6
2018-Jun-14 19:21N 41°18' W 072°05'8 9.2
2018-Jun-14 18:27N 41°15' W 072°15'510.6
2018-Jun-14 18:00N 41°14' W 072°21'5 9.5
2018-Jun-14 17:30N 41°13' W 072°27'5 9.4
2018-Jun-14 17:00N 41°12' W 072°33'5 9.1
2018-Jun-14 16:30N 41°12' W 072°39'4 8.5
2018-Jun-14 16:00N 41°12' W 072°45'60 7.9
2018-Jun-14 08:24N 40°46' W 073°57'3 6.5
2018-Jun-14 08:00N 40°43' W 073°58'3 6.0
2018-Jun-14 07:30N 40°41' W 074°01'1 2.2
2018-Jun-14 07:00N 40°42' W 074°02'611.6
2018-Jun-14 06:29N 40°48' W 073°59'1 0.0
2018-Jun-12 19:34N 40°47' W 073°60'0 0.1
2018-Jun-12 19:17N 40°47' W 073°60'2 5.2
2018-Jun-12 19:00N 40°45' W 074°01'3 6.2
2018-Jun-12 18:30N 40°42' W 074°02'3 6.1
2018-Jun-12 18:00N 40°40' W 074°03'2 3.2
2018-Jun-12 17:29N 40°39' W 074°05'0 0.0
2018-Jun-12 16:56N 40°39' W 074°05'0 0.0
2018-Jun-12 16:29N 40°39' W 074°05'0 0.0
2018-Jun-12 15:59N 40°39' W 074°05'0 0.0
2018-Jun-12 15:29N 40°39' W 074°05'0 0.0
2018-Jun-12 14:59N 40°39' W 074°05'0 0.0
2018-Jun-12 14:29N 40°39' W 074°05'  

Dump ship's entire track history